createdAt,value
2023-10-19T00:02:20.594Z,11.90
2023-10-19T00:04:49.156Z,11.90
2023-10-19T00:07:18.809Z,11.90
2023-10-19T00:09:52.670Z,12.00
2023-10-19T00:12:23.466Z,12.00
2023-10-19T00:14:52.147Z,12.00
2023-10-19T00:17:22.313Z,12.00
2023-10-19T00:20:11.047Z,12.10
2023-10-19T00:22:39.878Z,12.10
2023-10-19T00:25:14.836Z,12.10
2023-10-19T00:27:43.849Z,12.10
2023-10-19T00:30:13.691Z,12.20
2023-10-19T00:32:42.631Z,12.10
2023-10-19T00:35:28.519Z,12.20
2023-10-19T00:38:13.798Z,12.20
2023-10-19T00:40:48.476Z,12.20
2023-10-19T00:43:29.432Z,12.20
2023-10-19T00:45:59.097Z,12.20
2023-10-19T00:48:30.126Z,12.20
2023-10-19T00:51:08.422Z,12.20
2023-10-19T00:53:40.755Z,12.30
2023-10-19T00:56:10.793Z,12.30
2023-10-19T00:58:42.980Z,12.30
2023-10-19T01:01:11.655Z,12.30
2023-10-19T01:03:40.691Z,12.40
2023-10-19T01:06:11.050Z,12.40
2023-10-19T01:08:46.445Z,12.40
2023-10-19T01:11:16.771Z,12.30
2023-10-19T01:13:48.058Z,12.40
2023-10-19T01:16:23.336Z,12.40
2023-10-19T01:18:54.998Z,12.50
2023-10-19T01:21:28.653Z,12.50
2023-10-19T01:23:59.932Z,12.50
2023-10-19T01:26:28.643Z,12.50
2023-10-19T01:29:02.328Z,12.60
2023-10-19T01:31:39.542Z,12.60
2023-10-19T01:34:10.659Z,12.70
2023-10-19T01:36:43.637Z,12.60
2023-10-19T01:39:13.088Z,12.60
2023-10-19T01:41:42.868Z,12.70
2023-10-19T01:44:14.942Z,12.70
2023-10-19T01:46:45.512Z,12.70
2023-10-19T01:49:12.886Z,12.70
2023-10-19T01:51:41.626Z,12.70
2023-10-19T01:54:09.269Z,12.70
2023-10-19T01:56:40.152Z,12.80
2023-10-19T01:59:09.417Z,12.80
2023-10-19T02:01:43.120Z,12.70
2023-10-19T02:04:10.902Z,12.70
2023-10-19T02:06:40.407Z,12.80
2023-10-19T02:09:18.998Z,12.70
2023-10-19T02:11:50.144Z,12.80
2023-10-19T02:14:20.297Z,12.70
2023-10-19T02:16:52.855Z,12.70
2023-10-19T02:19:22.266Z,12.70
2023-10-19T02:21:49.883Z,12.80
2023-10-19T02:24:18.232Z,12.70
2023-10-19T02:26:51.214Z,12.70
2023-10-19T02:29:19.896Z,12.80
2023-10-19T02:31:48.930Z,12.80
2023-10-19T02:34:17.714Z,12.80
2023-10-19T02:36:46.250Z,12.80
2023-10-19T02:39:16.539Z,12.90
2023-10-19T02:41:45.391Z,12.90
2023-10-19T02:44:23.821Z,12.80
2023-10-19T02:46:53.604Z,12.90
2023-10-19T02:49:23.927Z,12.90
2023-10-19T02:51:52.478Z,12.90
2023-10-19T02:54:24.175Z,12.90
2023-10-19T02:56:54.230Z,12.90
2023-10-19T02:59:25.449Z,12.80
2023-10-19T03:01:56.218Z,12.90
2023-10-19T03:04:24.845Z,12.90
2023-10-19T03:06:53.767Z,12.90
2023-10-19T03:09:30.174Z,12.90
2023-10-19T03:12:01.300Z,13.00
2023-10-19T03:14:33.228Z,13.00
2023-10-19T03:17:02.013Z,13.00
2023-10-19T03:19:30.912Z,13.10
2023-10-19T03:22:02.487Z,13.10
2023-10-19T03:24:42.145Z,13.10
2023-10-19T03:27:14.665Z,13.10
2023-10-19T03:29:47.527Z,13.00
2023-10-19T03:32:17.572Z,13.10
2023-10-19T03:34:49.122Z,13.10
2023-10-19T03:37:20.738Z,13.10
2023-10-19T03:39:49.829Z,13.00
2023-10-19T03:42:22.243Z,13.00
2023-10-19T03:44:55.304Z,13.20
2023-10-19T03:47:27.271Z,13.10
2023-10-19T03:49:56.115Z,13.10
2023-10-19T03:52:28.383Z,13.00
2023-10-19T03:54:56.602Z,13.00
2023-10-19T03:57:26.380Z,13.00
2023-10-19T03:59:58.689Z,13.00
2023-10-19T04:02:30.148Z,13.00
2023-10-19T04:04:59.411Z,12.90
2023-10-19T04:07:32.788Z,12.80
2023-10-19T04:10:10.515Z,12.90
2023-10-19T04:12:43.956Z,12.90
2023-10-19T04:15:17.037Z,12.90
2023-10-19T04:17:46.075Z,12.90
2023-10-19T04:20:30.506Z,12.80
2023-10-19T04:23:00.252Z,12.90
2023-10-19T04:25:28.919Z,12.90
2023-10-19T04:27:58.423Z,12.90
2023-10-19T04:30:28.769Z,12.90
2023-10-19T04:32:59.706Z,12.80
2023-10-19T04:35:31.547Z,12.70
2023-10-19T04:38:01.138Z,12.70
2023-10-19T04:40:29.876Z,12.70
2023-10-19T04:42:58.421Z,12.70
2023-10-19T04:45:28.242Z,12.80
2023-10-19T04:47:56.676Z,12.80
2023-10-19T04:50:25.210Z,12.70
2023-10-19T04:52:53.766Z,12.70
2023-10-19T04:55:22.144Z,12.70
2023-10-19T04:57:50.401Z,12.60
2023-10-19T05:00:22.137Z,12.70
2023-10-19T05:02:53.424Z,12.60
2023-10-19T05:05:22.098Z,12.70
2023-10-19T05:07:50.453Z,12.80
2023-10-19T05:10:18.823Z,12.60
2023-10-19T05:12:47.554Z,12.70
2023-10-19T05:15:17.378Z,12.60
2023-10-19T05:17:46.682Z,12.60
2023-10-19T05:20:16.739Z,12.70
2023-10-19T05:22:45.581Z,12.70
2023-10-19T05:25:14.024Z,12.60
2023-10-19T05:27:43.871Z,12.60
2023-10-19T05:30:12.734Z,12.70
2023-10-19T05:32:41.464Z,12.70
2023-10-19T05:35:14.627Z,12.80
2023-10-19T05:37:44.421Z,12.80
2023-10-19T05:40:16.393Z,12.70
2023-10-19T05:42:45.081Z,12.60
2023-10-19T05:45:17.564Z,12.60
2023-10-19T05:47:46.176Z,12.60
2023-10-19T05:50:16.465Z,12.60
2023-10-19T05:52:48.772Z,12.50
2023-10-19T05:55:19.209Z,12.60
2023-10-19T05:57:47.342Z,12.60
2023-10-19T06:00:16.624Z,12.50
2023-10-19T06:02:47.788Z,12.60
2023-10-19T06:05:18.467Z,12.50
2023-10-19T06:07:49.538Z,12.50
2023-10-19T06:10:21.886Z,12.50
2023-10-19T06:12:52.378Z,12.50
2023-10-19T06:15:23.483Z,12.50
2023-10-19T06:17:52.400Z,12.40
2023-10-19T06:20:27.249Z,12.40
2023-10-19T06:22:58.259Z,12.40
2023-10-19T06:25:27.566Z,12.40
2023-10-19T06:27:58.545Z,12.40
2023-10-19T06:30:27.831Z,12.50
2023-10-19T06:32:58.735Z,12.40
2023-10-19T06:35:27.010Z,12.50
2023-10-19T06:37:57.472Z,12.60
2023-10-19T06:40:27.628Z,12.50
2023-10-19T06:42:58.044Z,12.60
2023-10-19T06:45:26.614Z,12.60
2023-10-19T06:47:55.624Z,12.60
2023-10-19T06:50:25.315Z,12.70
2023-10-19T06:52:55.918Z,12.70
2023-10-19T06:55:26.864Z,12.70
2023-10-19T06:57:56.928Z,12.60
2023-10-19T07:00:27.810Z,12.60
2023-10-19T07:02:59.115Z,12.70
2023-10-19T07:05:30.875Z,12.70
2023-10-19T07:08:01.220Z,12.80
2023-10-19T07:10:33.833Z,12.80
2023-10-19T07:13:02.151Z,12.80
2023-10-19T07:15:31.497Z,12.80
2023-10-19T07:18:00.783Z,12.80
2023-10-19T07:20:33.026Z,12.80
2023-10-19T07:23:07.067Z,13.00
2023-10-19T07:25:44.588Z,13.00
2023-10-19T07:28:13.985Z,13.00
2023-10-19T07:30:43.631Z,13.00
2023-10-19T07:33:12.262Z,13.00
2023-10-19T07:35:43.712Z,13.00
2023-10-19T07:38:12.483Z,13.00
2023-10-19T07:40:42.354Z,13.20
2023-10-19T07:43:10.994Z,13.10
2023-10-19T07:45:39.512Z,13.20
2023-10-19T07:48:08.912Z,13.20
2023-10-19T07:50:38.125Z,13.20
2023-10-19T07:53:07.113Z,13.30
2023-10-19T07:55:35.527Z,13.30
2023-10-19T07:58:06.019Z,13.30
2023-10-19T08:00:35.217Z,13.40
2023-10-19T08:03:04.342Z,13.40
2023-10-19T08:05:33.289Z,13.40
2023-10-19T08:08:02.381Z,13.50
2023-10-19T08:10:30.830Z,13.50
2023-10-19T08:13:00.399Z,13.50
2023-10-19T08:15:32.129Z,13.50
2023-10-19T08:18:00.724Z,13.50
2023-10-19T08:20:32.305Z,13.40
2023-10-19T08:23:03.040Z,13.50
2023-10-19T08:25:43.939Z,13.50
2023-10-19T08:28:21.309Z,13.50
2023-10-19T08:30:59.249Z,13.60
2023-10-19T08:33:28.435Z,13.70
2023-10-19T08:35:57.762Z,13.70
2023-10-19T08:38:26.650Z,13.90
2023-10-19T08:40:56.041Z,13.90
2023-10-19T08:43:25.762Z,14.00
2023-10-19T08:45:56.919Z,14.00
2023-10-19T08:48:25.773Z,14.20
2023-10-19T08:50:54.711Z,14.30
2023-10-19T08:53:23.805Z,14.30
2023-10-19T08:55:55.605Z,14.30
2023-10-19T08:58:24.489Z,14.40
2023-10-19T09:00:57.073Z,14.50
2023-10-19T09:03:27.445Z,14.50
2023-10-19T09:05:58.055Z,14.60
2023-10-19T09:08:26.833Z,14.80
2023-10-19T09:10:56.990Z,14.70
2023-10-19T09:13:26.313Z,14.70
2023-10-19T09:15:57.232Z,14.90
2023-10-19T09:18:29.960Z,14.90
2023-10-19T09:21:09.295Z,15.10
2023-10-19T09:23:38.592Z,15.00
2023-10-19T09:26:08.865Z,14.90
2023-10-19T09:28:39.296Z,14.90
2023-10-19T09:31:11.682Z,15.10
2023-10-19T09:33:43.340Z,15.10
2023-10-19T09:36:15.278Z,15.00
2023-10-19T09:38:49.777Z,15.00
2023-10-19T09:41:19.941Z,15.00
2023-10-19T09:43:49.467Z,15.20
2023-10-19T09:46:24.167Z,15.40
2023-10-19T09:48:53.283Z,15.50
2023-10-19T09:51:22.093Z,15.70
2023-10-19T09:53:52.301Z,15.80
2023-10-19T09:56:24.298Z,16.00
2023-10-19T09:58:56.914Z,16.10
2023-10-19T10:01:27.422Z,16.20
2023-10-19T10:03:58.639Z,16.20
2023-10-19T10:06:31.232Z,16.30
2023-10-19T10:09:01.550Z,16.40
2023-10-19T10:11:30.432Z,16.50
2023-10-19T10:13:59.508Z,16.50
2023-10-19T10:16:30.655Z,16.60
2023-10-19T10:19:01.860Z,16.60
2023-10-19T10:21:31.851Z,16.60
2023-10-19T10:24:01.910Z,16.50
2023-10-19T10:26:36.621Z,16.60
2023-10-19T10:29:13.295Z,16.70
2023-10-19T10:31:47.339Z,16.80
2023-10-19T10:34:46.086Z,16.90
2023-10-19T10:37:16.153Z,17.00
2023-10-19T10:39:46.530Z,17.10
2023-10-19T10:42:16.099Z,17.20
2023-10-19T10:44:45.807Z,17.20
2023-10-19T10:47:23.024Z,17.30
2023-10-19T10:49:56.605Z,17.30
2023-10-19T10:52:30.889Z,17.40
2023-10-19T10:55:00.274Z,17.50
2023-10-19T10:57:34.483Z,17.60
2023-10-19T11:00:09.163Z,17.70
2023-10-19T11:02:43.994Z,17.80
2023-10-19T11:05:14.422Z,17.90
2023-10-19T11:07:43.354Z,18.00
2023-10-19T11:10:12.483Z,17.90
2023-10-19T11:12:41.067Z,18.00
2023-10-19T11:15:12.079Z,17.90
2023-10-19T11:17:57.228Z,17.90
2023-10-19T11:20:28.338Z,17.90
2023-10-19T11:23:01.933Z,17.90
2023-10-19T11:25:31.505Z,17.90
2023-10-19T11:28:01.122Z,18.00
2023-10-19T11:30:30.607Z,17.90
2023-10-19T11:33:02.432Z,17.90
2023-10-19T11:35:32.648Z,18.00
2023-10-19T11:38:03.824Z,18.00
2023-10-19T11:40:32.631Z,18.00
2023-10-19T11:43:02.195Z,18.00
2023-10-19T11:45:31.181Z,18.00
2023-10-19T11:48:01.025Z,18.00
2023-10-19T11:50:29.643Z,18.00
2023-10-19T11:52:58.493Z,18.10
2023-10-19T11:55:27.315Z,18.30
2023-10-19T11:57:55.424Z,18.40
2023-10-19T12:00:26.236Z,18.60
2023-10-19T12:02:54.874Z,18.60
2023-10-19T12:05:25.374Z,18.70
2023-10-19T12:07:54.019Z,18.70
2023-10-19T12:10:27.838Z,18.70
2023-10-19T12:13:01.866Z,18.70
2023-10-19T12:15:32.138Z,18.70
2023-10-19T12:18:01.422Z,18.60
2023-10-19T12:20:32.386Z,18.70
2023-10-19T12:23:02.195Z,18.60
2023-10-19T12:25:50.141Z,18.60
2023-10-19T12:28:21.924Z,18.70
2023-10-19T12:30:50.313Z,18.70
2023-10-19T12:33:21.233Z,18.60
2023-10-19T12:35:53.002Z,18.70
2023-10-19T12:38:22.392Z,18.60
2023-10-19T12:40:52.492Z,18.60
2023-10-19T12:43:23.598Z,18.70
2023-10-19T12:45:56.061Z,18.60
2023-10-19T12:48:26.794Z,18.60
2023-10-19T12:50:56.970Z,18.60
2023-10-19T12:53:26.280Z,18.50
2023-10-19T12:55:55.387Z,18.50
2023-10-19T12:58:23.893Z,18.60
2023-10-19T13:00:53.172Z,18.50
2023-10-19T13:03:23.050Z,18.50
2023-10-19T13:05:52.083Z,18.40
2023-10-19T13:08:22.264Z,18.40
2023-10-19T13:10:53.339Z,18.40
2023-10-19T13:13:25.425Z,18.40
2023-10-19T13:15:54.990Z,18.40
2023-10-19T13:18:29.224Z,18.40
2023-10-19T13:21:00.103Z,18.30
2023-10-19T13:23:31.481Z,18.30
2023-10-19T13:26:12.072Z,18.30
2023-10-19T13:28:42.353Z,18.20
2023-10-19T13:31:11.351Z,18.20
2023-10-19T13:33:40.154Z,18.20
2023-10-19T13:36:08.854Z,18.20
2023-10-19T13:38:39.216Z,18.20
2023-10-19T13:41:08.954Z,18.10
2023-10-19T13:43:39.483Z,18.10
2023-10-19T13:46:08.288Z,18.10
2023-10-19T13:48:37.437Z,18.00
2023-10-19T13:51:14.408Z,18.00
2023-10-19T13:53:46.335Z,17.90
2023-10-19T13:56:16.039Z,17.90
2023-10-19T13:58:44.759Z,17.70
2023-10-19T14:01:17.350Z,17.70
2023-10-19T14:03:47.202Z,17.60
2023-10-19T14:06:16.248Z,17.60
2023-10-19T14:08:46.466Z,17.50
2023-10-19T14:11:14.799Z,17.50
2023-10-19T14:13:43.906Z,17.50
2023-10-19T14:16:12.962Z,17.50
2023-10-19T14:18:41.542Z,17.40
2023-10-19T14:21:15.233Z,17.40
2023-10-19T14:23:45.753Z,17.40
2023-10-19T14:26:15.873Z,17.40
2023-10-19T14:28:44.295Z,17.40
2023-10-19T14:31:13.578Z,17.40
2023-10-19T14:33:43.457Z,17.40
2023-10-19T14:36:12.396Z,17.30
2023-10-19T14:38:42.364Z,17.40
2023-10-19T14:41:11.255Z,17.30
2023-10-19T14:43:44.387Z,17.20
2023-10-19T14:46:17.757Z,17.20
2023-10-19T14:48:48.140Z,17.20
2023-10-19T14:51:16.279Z,17.10
2023-10-19T14:53:46.116Z,17.10
2023-10-19T14:56:14.517Z,17.10
2023-10-19T14:58:44.235Z,17.00
2023-10-19T15:01:17.964Z,17.00
2023-10-19T15:03:46.538Z,17.00
2023-10-19T15:06:15.676Z,16.90
2023-10-19T15:08:43.854Z,16.80
2023-10-19T15:11:12.278Z,16.80
2023-10-19T15:13:40.382Z,16.90
2023-10-19T15:16:15.063Z,16.80
2023-10-19T15:18:43.291Z,16.90
2023-10-19T15:21:12.374Z,16.80
2023-10-19T15:23:42.377Z,16.80
2023-10-19T15:26:10.731Z,16.80
2023-10-19T15:28:39.682Z,16.70
2023-10-19T15:31:08.842Z,16.70
2023-10-19T15:33:40.790Z,16.70
2023-10-19T15:36:09.234Z,16.70
2023-10-19T15:38:37.701Z,16.70
2023-10-19T15:41:06.090Z,16.70
2023-10-19T15:43:34.291Z,16.70
2023-10-19T15:46:04.312Z,16.70
2023-10-19T15:48:35.834Z,16.70
2023-10-19T15:51:07.608Z,16.60
2023-10-19T15:53:37.440Z,16.60
2023-10-19T15:56:11.762Z,16.60
2023-10-19T15:58:39.920Z,16.50
2023-10-19T16:01:09.284Z,16.50
2023-10-19T16:03:38.868Z,16.40
2023-10-19T16:06:10.460Z,16.40
2023-10-19T16:08:39.077Z,16.40
2023-10-19T16:11:08.352Z,16.40
2023-10-19T16:13:37.344Z,16.40
2023-10-19T16:16:05.887Z,16.40
2023-10-19T16:18:34.138Z,16.40
2023-10-19T16:21:05.901Z,16.40
2023-10-19T16:23:36.134Z,16.30
2023-10-19T16:26:04.953Z,16.30
2023-10-19T16:28:34.173Z,16.30
2023-10-19T16:31:07.180Z,16.30
2023-10-19T16:33:36.685Z,16.20
2023-10-19T16:36:05.729Z,16.20
2023-10-19T16:38:35.526Z,16.20
2023-10-19T16:41:04.090Z,16.10
2023-10-19T16:43:32.293Z,16.10
2023-10-19T16:46:01.906Z,16.10
2023-10-19T16:48:30.154Z,16.10
2023-10-19T16:51:03.099Z,16.10
2023-10-19T16:53:31.458Z,16.10
2023-10-19T16:56:03.340Z,16.10
2023-10-19T16:58:31.842Z,16.10
2023-10-19T17:01:00.294Z,16.00
2023-10-19T17:03:30.421Z,16.00
2023-10-19T17:05:58.767Z,16.00
2023-10-19T17:08:27.033Z,16.00
2023-10-19T17:10:56.103Z,15.90
2023-10-19T17:13:27.522Z,15.90
2023-10-19T17:15:56.358Z,15.90
2023-10-19T17:18:24.600Z,15.80
2023-10-19T17:20:53.322Z,15.80
2023-10-19T17:23:21.981Z,15.80
2023-10-19T17:25:51.969Z,15.70
2023-10-19T17:28:22.502Z,15.60
2023-10-19T17:30:53.211Z,15.50
2023-10-19T17:33:21.817Z,15.50
2023-10-19T17:35:50.795Z,15.50
2023-10-19T17:38:19.687Z,15.40
2023-10-19T17:40:48.064Z,15.40
2023-10-19T17:43:16.422Z,15.30
2023-10-19T17:45:48.979Z,15.30
2023-10-19T17:48:20.449Z,15.20
2023-10-19T17:50:48.541Z,15.20
2023-10-19T17:53:19.461Z,15.20
2023-10-19T17:55:48.330Z,15.20
2023-10-19T17:58:16.637Z,15.10
2023-10-19T18:00:45.936Z,15.10
2023-10-19T18:03:15.126Z,15.00
2023-10-19T18:05:57.036Z,14.90
2023-10-19T18:08:25.813Z,14.90
2023-10-19T18:10:55.189Z,14.90
2023-10-19T18:13:27.650Z,14.80
2023-10-19T18:15:56.300Z,14.70
2023-10-19T18:18:26.734Z,14.70
2023-10-19T18:20:59.764Z,14.70
2023-10-19T18:23:28.101Z,14.60
2023-10-19T18:25:57.205Z,14.60
2023-10-19T18:28:26.054Z,14.50
2023-10-19T18:30:58.556Z,14.50
2023-10-19T18:33:28.607Z,14.40
2023-10-19T18:36:01.398Z,14.40
2023-10-19T18:38:32.222Z,14.30
2023-10-19T18:41:02.057Z,14.20
2023-10-19T18:43:31.483Z,14.20
2023-10-19T18:46:00.426Z,14.10
2023-10-19T18:48:29.801Z,14.20
2023-10-19T18:51:02.159Z,14.10
2023-10-19T18:53:30.666Z,14.10
2023-10-19T18:55:59.368Z,14.10
2023-10-19T18:58:28.425Z,14.10
2023-10-19T19:00:58.873Z,14.10
2023-10-19T19:03:27.501Z,14.10
2023-10-19T19:05:58.736Z,14.00
2023-10-19T19:08:29.898Z,14.00
2023-10-19T19:11:00.572Z,14.00
2023-10-19T19:13:29.042Z,13.90
2023-10-19T19:15:59.837Z,13.90
2023-10-19T19:18:28.436Z,13.80
2023-10-19T19:20:57.106Z,13.80
2023-10-19T19:23:25.574Z,13.80
2023-10-19T19:25:55.705Z,13.80
2023-10-19T19:28:24.866Z,13.80
2023-10-19T19:30:56.192Z,13.70
2023-10-19T19:33:24.371Z,13.70
2023-10-19T19:35:52.881Z,13.60
2023-10-19T19:38:22.343Z,13.50
2023-10-19T19:40:51.251Z,13.50
2023-10-19T19:43:21.412Z,13.50
2023-10-19T19:45:52.890Z,13.50
2023-10-19T19:48:24.596Z,13.40
2023-10-19T19:50:53.141Z,13.40
2023-10-19T19:53:21.773Z,13.30
2023-10-19T19:55:51.552Z,13.40
2023-10-19T19:58:21.827Z,13.40
2023-10-19T20:00:50.056Z,13.40
2023-10-19T20:03:20.318Z,13.40
2023-10-19T20:05:52.506Z,13.40
2023-10-19T20:08:22.140Z,13.50
2023-10-19T20:10:51.794Z,13.50
2023-10-19T20:13:23.114Z,13.50
2023-10-19T20:16:02.056Z,13.50
2023-10-19T20:18:33.265Z,13.50
2023-10-19T20:21:02.470Z,13.60
2023-10-19T20:23:32.042Z,13.60
2023-10-19T20:26:03.150Z,13.60
2023-10-19T20:28:33.627Z,13.60
2023-10-19T20:31:01.987Z,13.50
2023-10-19T20:33:32.242Z,13.50
2023-10-19T20:36:01.974Z,13.60
2023-10-19T20:38:30.298Z,13.60
2023-10-19T20:40:58.773Z,13.60
2023-10-19T20:43:28.253Z,13.60
2023-10-19T20:45:58.180Z,13.60
2023-10-19T20:48:26.778Z,13.60
2023-10-19T20:50:54.988Z,13.60
2023-10-19T20:53:24.717Z,13.60
2023-10-19T20:55:52.988Z,13.70
2023-10-19T20:58:24.077Z,13.70
2023-10-19T21:00:52.804Z,13.60
2023-10-19T21:03:22.787Z,13.70
2023-10-19T21:05:51.351Z,13.70
2023-10-19T21:08:19.765Z,13.70
2023-10-19T21:10:48.361Z,13.60
2023-10-19T21:13:16.788Z,13.60
2023-10-19T21:15:45.308Z,13.70
2023-10-19T21:18:13.634Z,13.60
2023-10-19T21:20:44.056Z,13.60
2023-10-19T21:23:12.290Z,13.60
2023-10-19T21:25:40.454Z,13.50
2023-10-19T21:28:09.493Z,13.60
2023-10-19T21:30:38.039Z,13.60
2023-10-19T21:33:07.145Z,13.50
2023-10-19T21:35:39.983Z,13.50
2023-10-19T21:38:12.013Z,13.50
2023-10-19T21:40:43.530Z,13.50
2023-10-19T21:43:12.380Z,13.50
2023-10-19T21:45:41.787Z,13.50
2023-10-19T21:48:10.675Z,13.40
2023-10-19T21:50:39.352Z,13.40
2023-10-19T21:53:09.904Z,13.30
2023-10-19T21:55:39.304Z,13.30
2023-10-19T21:58:07.807Z,13.30
2023-10-19T22:00:36.646Z,13.30
2023-10-19T22:05:37.554Z,13.20
2023-10-19T22:08:06.793Z,13.30
2023-10-19T22:10:37.003Z,13.20
2023-10-19T22:13:05.406Z,13.30
2023-10-19T22:15:33.603Z,13.30
2023-10-19T22:18:01.844Z,13.20
2023-10-19T22:20:32.132Z,13.30
2023-10-19T22:23:00.509Z,13.20
2023-10-19T22:25:29.934Z,13.20
2023-10-19T22:27:59.909Z,13.30
2023-10-19T22:30:28.626Z,13.40
2023-10-19T22:32:57.013Z,13.40
2023-10-19T22:35:29.167Z,13.40
2023-10-19T22:37:57.352Z,13.40
2023-10-19T22:40:25.809Z,13.50
2023-10-19T22:42:56.537Z,13.50
2023-10-19T22:45:26.212Z,13.50
2023-10-19T22:47:54.691Z,13.50
2023-10-19T22:50:26.213Z,13.50
2023-10-19T22:52:54.738Z,13.50
2023-10-19T22:55:22.986Z,13.50
2023-10-19T22:57:53.547Z,13.50
2023-10-19T23:00:22.741Z,13.50
2023-10-19T23:02:52.806Z,13.50
2023-10-19T23:05:22.231Z,13.50
2023-10-19T23:07:52.567Z,13.60
2023-10-19T23:10:22.832Z,13.60
2023-10-19T23:12:53.792Z,13.60
2023-10-19T23:15:32.474Z,13.60
2023-10-19T23:18:04.177Z,13.60
2023-10-19T23:20:34.072Z,13.60
2023-10-19T23:23:05.652Z,13.60
2023-10-19T23:25:35.488Z,13.60
2023-10-19T23:28:06.525Z,13.60
2023-10-19T23:30:37.118Z,13.60
2023-10-19T23:33:08.758Z,13.60
2023-10-19T23:35:37.870Z,13.60
2023-10-19T23:38:08.055Z,13.60
2023-10-19T23:40:36.534Z,13.60
2023-10-19T23:43:06.412Z,13.60
2023-10-19T23:45:35.281Z,13.60
2023-10-19T23:48:04.042Z,13.60
2023-10-19T23:50:35.042Z,13.60
2023-10-19T23:53:03.798Z,13.60
2023-10-19T23:55:32.155Z,13.60
2023-10-19T23:58:01.195Z,13.60
